Omaha, Nebraska
Current Conditions -  °F | °C
As of 9:52 AM on Thursday 29 Jan 2015 (Local Time) from KOMA Reporting Station
Overcast Overcast  
Wind Chill: 25°   Ceiling: 2300
Heat Index: 37°   Visibility: 10mi
Dew Point: 27°   Wind: 25mph
Humidity: 67%   Direction: 340°NNW
Pressure: 30.34"   Gusts: 38mph
Location:  41.26°N, 95.94°W
Report Text: KOMA 291552Z 34022G33KT 10SM OVC023 03/M03 A3034 RMK AO2 PK WND 33033/1547 SLP279 T00281028
Loading
Personal Weather Stations






























Interactive Weather Map New forecast layout! Learn more

10-Day Weather Forecast

Advertisements
Track Severe Weather on mobile